createdAt,value
2023-04-30T00:04:30.994Z,1015.24
2023-04-30T00:10:51.015Z,1015.22
2023-04-30T00:17:14.002Z,1015.24
2023-04-30T00:23:34.022Z,1015.32
2023-04-30T00:29:57.028Z,1015.38
2023-04-30T00:36:17.102Z,1015.38
2023-04-30T00:42:39.973Z,1015.42
2023-04-30T00:49:00.022Z,1015.46
2023-04-30T00:55:23.015Z,1015.44
2023-04-30T01:01:43.078Z,1015.5
2023-04-30T01:08:06.011Z,1015.48
2023-04-30T01:14:26.014Z,1015.5
2023-04-30T01:20:48.972Z,1015.54
2023-04-30T01:27:09.011Z,1015.48
2023-04-30T01:33:32.006Z,1015.52
2023-04-30T01:39:52.042Z,1015.48
2023-04-30T01:46:15.067Z,1015.46
2023-04-30T01:52:35.025Z,1015.42
2023-04-30T01:58:58.011Z,1015.4
2023-04-30T02:05:17.990Z,1015.4
2023-04-30T02:11:41.000Z,1015.48
2023-04-30T02:18:01.021Z,1015.5
2023-04-30T02:24:23.982Z,1015.5
2023-04-30T02:30:44.002Z,1015.54
2023-04-30T02:37:07.053Z,1015.6
2023-04-30T02:43:26.992Z,1015.62
2023-04-30T02:49:50.053Z,1015.67
2023-04-30T02:56:10.004Z,1015.67
2023-04-30T03:02:33.185Z,1015.69
2023-04-30T03:08:52.992Z,1015.69
2023-04-30T03:15:15.989Z,1015.67
2023-04-30T03:37:26.003Z,1015.67
2023-04-30T03:43:48.999Z,1015.67
2023-04-30T03:50:09.013Z,1015.63
2023-04-30T03:56:32.041Z,1015.63
2023-04-30T04:02:52.002Z,1015.65
2023-04-30T04:09:15.012Z,1015.65
2023-04-30T04:15:35.282Z,1015.67
2023-04-30T04:21:57.983Z,1015.67
2023-04-30T04:28:18.006Z,1015.69
2023-04-30T04:34:41.031Z,1015.84
2023-04-30T04:41:01.006Z,1015.88
2023-04-30T04:47:24.051Z,1015.86
2023-04-30T04:53:44.002Z,1015.9
2023-04-30T05:00:07.017Z,1015.92
2023-04-30T05:06:27.115Z,1015.94
2023-04-30T05:12:50.046Z,1015.94
2023-04-30T05:19:09.990Z,1016
2023-04-30T05:25:33.022Z,1016.09
2023-04-30T05:31:53.082Z,1016.15
2023-04-30T05:38:16.003Z,1016.21
2023-04-30T05:44:36.018Z,1016.29
2023-04-30T05:50:59.039Z,1016.37
2023-04-30T05:57:19.009Z,1016.39
2023-04-30T06:03:42.015Z,1016.41
2023-04-30T06:10:02.042Z,1016.41
2023-04-30T06:16:25.036Z,1016.41
2023-04-30T06:22:44.997Z,1016.41
2023-04-30T06:29:08.021Z,1016.37
2023-04-30T06:35:28.017Z,1016.39
2023-04-30T06:41:51.056Z,1016.37
2023-04-30T06:48:11.016Z,1016.27
2023-04-30T06:54:34.005Z,1016.27
2023-04-30T07:00:53.998Z,1016.33
2023-04-30T07:07:17.026Z,1016.31
2023-04-30T07:13:36.977Z,1016.25
2023-04-30T07:20:00.000Z,1016.17
2023-04-30T07:26:20.014Z,1016.21
2023-04-30T07:32:43.108Z,1016.19
2023-04-30T07:39:04.000Z,1016.21
2023-04-30T07:45:27.006Z,1016.15
2023-04-30T07:51:46.977Z,1016.13
2023-04-30T07:58:10.013Z,1016.13
2023-04-30T08:04:30.039Z,1016.17
2023-04-30T08:10:52.996Z,1016.11
2023-04-30T08:17:12.981Z,1016.09
2023-04-30T08:23:36.005Z,1016.11
2023-04-30T08:29:56.264Z,1016.09
2023-04-30T08:52:44.011Z,1015.94
2023-04-30T08:59:06.988Z,1015.92
2023-04-30T09:05:26.987Z,1015.86
2023-04-30T09:11:49.999Z,1015.82
2023-04-30T09:18:10.050Z,1015.69
2023-04-30T09:24:32.990Z,1015.67
2023-04-30T09:30:53.017Z,1015.58
2023-04-30T09:37:16.082Z,1015.5
2023-04-30T09:43:35.978Z,1015.42
2023-04-30T09:49:59.002Z,1015.38
2023-04-30T09:56:18.974Z,1015.3
2023-04-30T10:02:42.016Z,1015.24
2023-04-30T10:09:02.010Z,1015.18
2023-04-30T10:15:24.982Z,1015.15
2023-04-30T10:21:44.994Z,1015.07
2023-04-30T10:28:08.014Z,1014.95
2023-04-30T10:34:28.014Z,1014.89
2023-04-30T10:40:51.020Z,1014.89
2023-04-30T10:47:11.020Z,1014.83
2023-04-30T10:53:33.994Z,1014.73
2023-04-30T10:59:54.150Z,1014.68
2023-04-30T11:06:17.064Z,1014.58
2023-04-30T11:12:37.004Z,1014.52
2023-04-30T11:18:59.982Z,1014.44
2023-04-30T11:25:20.046Z,1014.4
2023-04-30T11:31:43.043Z,1014.34
2023-04-30T11:38:02.991Z,1014.28
2023-04-30T11:44:26.011Z,1014.21
2023-04-30T11:50:45.994Z,1014.17
2023-04-30T11:57:08.990Z,1014.09
2023-04-30T12:03:29.060Z,1014.03
2023-04-30T12:09:52.040Z,1013.99
2023-04-30T12:16:11.988Z,1013.89
2023-04-30T12:22:35.016Z,1013.81
2023-04-30T12:28:54.994Z,1013.79
2023-04-30T12:35:17.992Z,1013.75
2023-04-30T12:41:38.023Z,1013.72
2023-04-30T12:48:01.027Z,1013.62
2023-04-30T12:54:20.984Z,1013.56
2023-04-30T13:00:44.012Z,1013.52
2023-04-30T13:07:03.983Z,1013.44
2023-04-30T13:13:26.994Z,1013.4
2023-04-30T13:19:47.013Z,1013.32
2023-04-30T13:26:09.987Z,1013.3
2023-04-30T13:32:30.019Z,1013.23
2023-04-30T13:38:53.018Z,1013.08
2023-04-30T13:45:12.996Z,1013.06
2023-04-30T13:51:35.981Z,1012.96
2023-04-30T13:57:56.010Z,1012.87
2023-04-30T14:04:19.017Z,1012.77
2023-04-30T14:10:38.989Z,1012.71
2023-04-30T14:17:02.037Z,1012.65
2023-04-30T14:33:45.998Z,1012.53
2023-04-30T14:40:08.999Z,1012.45
2023-04-30T14:46:29.070Z,1012.42
2023-04-30T14:52:52.259Z,1012.34
2023-04-30T14:59:11.978Z,1012.24
2023-04-30T15:05:34.999Z,1012.18
2023-04-30T15:11:55.004Z,1012.12
2023-04-30T15:18:18.012Z,1012.08
2023-04-30T15:24:37.974Z,1012.06
2023-04-30T15:31:01.076Z,1012.02
2023-04-30T15:37:20.995Z,1011.98
2023-04-30T15:43:43.997Z,1011.96
2023-04-30T15:50:04.054Z,1011.95
2023-04-30T15:56:26.978Z,1011.89
2023-04-30T16:02:47.051Z,1011.85
2023-04-30T16:09:10.022Z,1011.79
2023-04-30T16:15:30.013Z,1011.77
2023-04-30T16:21:53.060Z,1011.73
2023-04-30T16:28:13.026Z,1011.69
2023-04-30T16:34:36.005Z,1011.59
2023-04-30T16:40:55.978Z,1011.57
2023-04-30T16:47:19.284Z,1011.48
2023-04-30T16:53:39.266Z,1011.49
2023-04-30T17:00:01.979Z,1011.46
2023-04-30T17:06:22.052Z,1011.42
2023-04-30T17:12:44.973Z,1011.34
2023-04-30T17:19:05.104Z,1011.3
2023-04-30T17:25:28.188Z,1011.22
2023-04-30T17:31:48.031Z,1011.2
2023-04-30T17:38:10.988Z,1011.14
2023-04-30T17:44:30.998Z,1011.18
2023-04-30T17:50:53.980Z,1011.16
2023-04-30T17:57:13.987Z,1011.12
2023-04-30T18:03:37.072Z,1011.1
2023-04-30T18:09:57.359Z,1011.1
2023-04-30T18:16:20.001Z,1011.05
2023-04-30T18:22:40.025Z,1011.05
2023-04-30T18:29:03.003Z,1011.05
2023-04-30T18:35:22.988Z,1011.03
2023-04-30T18:41:46.016Z,1011.05
2023-04-30T18:48:06.017Z,1011.01
2023-04-30T18:54:28.975Z,1010.99
2023-04-30T19:00:49.021Z,1010.99
2023-04-30T19:07:11.984Z,1011.07
2023-04-30T19:13:31.991Z,1011.07
2023-04-30T19:19:55.143Z,1011.1
2023-04-30T19:26:15.018Z,1011.16
2023-04-30T19:32:38.067Z,1011.14
2023-04-30T19:38:58.152Z,1011.24
2023-04-30T19:45:20.997Z,1011.3
2023-04-30T19:51:40.983Z,1011.28
2023-04-30T20:14:29.006Z,1011.42
2023-04-30T20:20:52.019Z,1011.44
2023-04-30T20:27:11.980Z,1011.46
2023-04-30T20:33:35.009Z,1011.42
2023-04-30T20:39:55.255Z,1011.4
2023-04-30T20:46:18.009Z,1011.42
2023-04-30T20:52:38.019Z,1011.4
2023-04-30T20:59:00.999Z,1011.4
2023-04-30T21:05:20.999Z,1011.42
2023-04-30T21:11:44.025Z,1011.38
2023-04-30T21:18:04.108Z,1011.4
2023-04-30T21:24:27.002Z,1011.38
2023-04-30T21:30:47.035Z,1011.38
2023-04-30T21:37:09.999Z,1011.38
2023-04-30T21:43:30.005Z,1011.36
2023-04-30T21:49:53.092Z,1011.4
2023-04-30T21:56:12.992Z,1011.36
2023-04-30T22:20:30.002Z,1011.22
2023-04-30T22:26:49.998Z,1011.2
2023-04-30T22:33:13.055Z,1011.16
2023-04-30T22:39:33.038Z,1011.14
2023-04-30T22:45:56.016Z,1011.12
2023-04-30T22:52:16.022Z,1011.09
2023-04-30T22:58:39.013Z,1011.05
2023-04-30T23:04:58.983Z,1011.05
2023-04-30T23:11:21.976Z,1011.03
2023-04-30T23:17:42.044Z,1011.03
2023-04-30T23:24:04.974Z,1011.05
2023-04-30T23:30:25.021Z,1011.05
2023-04-30T23:36:48.002Z,1010.99
2023-04-30T23:43:08.040Z,1010.93
2023-04-30T23:49:30.979Z,1010.89
2023-04-30T23:55:51.023Z,1010.81
